Port Stanley, Canada
Current Conditions -  °F | °C
As of 8:00 AM on Thursday 30 Oct 2014 (Local Time) from CYXU Reporting Station
Broken Clouds Broken Clouds  
Wind Chill: 37°   Ceiling: 2500
Heat Index: 37°   Visibility: 15mi
Dew Point: 37°   Wind: 2mph
Humidity: 100%   Direction: 300°WNW
Pressure: 30.08"   Gusts: NA
Location:  42.67°N, 81.22°W
Report Text: CYXU 301200Z 30002KT 15SM FEW008 BKN025 03/03 A3008 RMK ST1SC5 ST TR VIRGA N SLP194
Loading
Personal Weather Stations






























Interactive Weather Map
Tropical Storm Tracking
New forecast layout! Learn more

10-Day Weather Forecast

Advertisements
Track Severe Weather on mobile